Time;durP1;ratioP1;P1;durP2;ratioP2;P2;SDS_P1;SDS_P2;PMS_P1;PMS_P2;Temp;Humidity;BMP_temperature;BMP_pressure;BME280_temperature;BME280_humidity;BME280_pressure;Samples;Min_cycle;Max_cycle;Signal;HPM_P1;HPM_P2
2023/06/02 00:01:53;;;;;;;17.53;7.80;;;;;;;17.67;52.09;100189.28;123289;1099;104421;-72
2023/06/02 00:04:26;;;;;;;15.23;6.47;;;;;;;17.65;52.12;100178.66;123233;1099;104316;-73
2023/06/02 00:07:03;;;;;;;16.53;7.23;;;;;;;17.66;52.05;100183.09;123256;1099;104696;-74
2023/06/02 00:09:48;;;;;;;19.00;7.03;;;;;;;17.60;52.41;100186.61;123258;1099;104376;-75
2023/06/02 00:12:22;;;;;;;19.60;7.70;;;;;;;17.57;52.71;100185.73;123328;1099;104226;-75
2023/06/02 00:14:54;;;;;;;18.93;7.07;;;;;;;17.58;52.71;100184.86;123278;1099;104265;-75
2023/06/02 00:17:25;;;;;;;17.50;6.87;;;;;;;17.55;53.19;100184.86;123324;1099;104284;-74
2023/06/02 00:19:56;;;;;;;19.27;7.10;;;;;;;17.54;52.97;100177.77;123267;1099;104731;-74
2023/06/02 00:22:29;;;;;;;21.10;7.00;;;;;;;17.53;53.31;100181.29;123223;1098;104509;-73
2023/06/02 00:25:00;;;;;;;17.93;6.67;;;;;;;17.53;53.32;100183.94;123206;1099;104373;-73
2023/06/02 00:27:32;;;;;;;18.53;6.70;;;;;;;17.51;53.48;100188.38;123271;1100;104344;-73
2023/06/02 00:30:03;;;;;;;18.90;7.33;;;;;;;17.46;53.51;100190.14;123160;1102;104360;-73
2023/06/02 00:32:35;;;;;;;18.43;6.57;;;;;;;17.36;53.20;100183.93;123143;1099;104314;-74
2023/06/02 00:35:08;;;;;;;18.40;7.07;;;;;;;17.24;53.73;100190.06;123160;1099;104376;-73
2023/06/02 00:37:39;;;;;;;15.60;6.97;;;;;;;17.13;53.94;100192.67;123260;1102;104367;-73
2023/06/02 00:40:12;;;;;;;20.30;7.60;;;;;;;17.09;53.90;100185.58;123072;1099;104309;-74
2023/06/02 00:42:43;;;;;;;15.90;6.90;;;;;;;17.10;54.48;100192.66;123174;1099;104262;-73
2023/06/02 00:45:16;;;;;;;17.93;7.30;;;;;;;17.11;54.56;100193.53;123196;1099;104269;-73
2023/06/02 00:47:47;;;;;;;16.37;6.90;;;;;;;17.03;54.29;100198.80;123286;1099;104354;-74
2023/06/02 00:50:18;;;;;;;16.90;6.60;;;;;;;16.92;55.12;100188.16;123293;1099;104265;-74
2023/06/02 00:52:55;;;;;;;20.30;7.50;;;;;;;16.80;55.00;100183.66;123240;1099;104223;-74
2023/06/02 00:55:28;;;;;;;19.87;7.33;;;;;;;16.73;54.92;100186.27;123188;1099;104222;-74
2023/06/02 00:58:03;;;;;;;15.13;6.77;;;;;;;16.67;55.47;100179.16;123332;1099;104235;-74
2023/06/02 01:00:36;;;;;;;19.63;7.30;;;;;;;16.65;54.92;100179.15;123287;1099;104268;-74
2023/06/02 01:03:08;;;;;;;18.27;7.17;;;;;;;16.66;55.21;100174.77;123139;1099;104287;-74
2023/06/02 01:05:40;;;;;;;18.17;6.67;;;;;;;16.66;55.60;100175.64;123263;1099;104271;-75
2023/06/02 01:08:14;;;;;;;18.70;6.93;;;;;;;16.70;56.01;100176.53;123229;1102;104403;-74
2023/06/02 01:10:45;;;;;;;20.15;7.03;;;;;;;16.71;55.76;100173.89;123294;1099;104271;-75
2023/06/02 01:13:17;;;;;;;22.75;8.15;;;;;;;16.74;56.35;100174.80;123394;1099;104328;-75
2023/06/02 01:15:48;;;;;;;21.43;7.90;;;;;;;16.75;55.60;100177.47;123338;1099;104411;-74
2023/06/02 01:18:25;;;;;;;19.97;7.33;;;;;;;16.77;55.87;100172.17;123192;1099;104316;-74
2023/06/02 01:20:58;;;;;;;18.10;6.90;;;;;;;16.77;56.54;100167.75;123199;1099;104271;-74
2023/06/02 01:23:36;;;;;;;18.83;7.20;;;;;;;16.77;55.80;100170.40;123332;1099;104313;-74
2023/06/02 01:26:08;;;;;;;17.67;7.37;;;;;;;16.73;56.11;100165.95;123197;1100;104496;-74
2023/06/02 01:28:40;;;;;;;18.37;6.93;;;;;;;16.71;56.39;100167.72;123244;1099;104344;-75
2023/06/02 01:31:21;;;;;;;18.10;7.47;;;;;;;16.68;56.48;100167.70;123249;1099;104373;-74
2023/06/02 01:34:00;;;;;;;17.50;6.80;;;;;;;16.63;56.20;100161.50;123223;1099;104242;-73
2023/06/02 01:36:34;;;;;;;20.37;7.00;;;;;;;16.61;56.84;100165.87;123169;1098;104329;-73
2023/06/02 01:39:07;;;;;;;18.57;7.20;;;;;;;16.57;57.08;100169.41;123162;1102;104499;-73
2023/06/02 01:41:41;;;;;;;20.15;7.45;;;;;;;16.54;56.68;100167.61;123105;1099;104261;-73
2023/06/02 01:44:13;;;;;;;18.27;7.57;;;;;;;16.49;57.32;100169.36;123172;1102;104687;-73
2023/06/02 01:46:44;;;;;;;16.40;7.55;;;;;;;16.45;56.88;100168.44;123177;1099;104226;-74
2023/06/02 01:49:19;;;;;;;17.95;7.30;;;;;;;16.39;57.50;100171.04;123210;1099;104248;-73
2023/06/02 01:51:50;;;;;;;17.93;7.60;;;;;;;16.29;57.63;100163.93;123152;1101;104389;-74
2023/06/02 01:54:22;;;;;;;17.47;7.50;;;;;;;16.17;57.56;100170.92;123123;1099;104254;-73
2023/06/02 01:56:53;;;;;;;18.05;7.40;;;;;;;16.06;57.89;100169.05;123214;1099;104265;-73
2023/06/02 01:59:25;;;;;;;17.40;7.50;;;;;;;15.95;58.09;100164.54;123153;1099;104269;-73
2023/06/02 02:01:57;;;;;;;22.60;8.03;;;;;;;15.90;58.86;100160.98;123230;1099;104284;-74
2023/06/02 02:04:29;;;;;;;18.63;7.23;;;;;;;15.91;58.12;100153.91;123210;1099;104405;-73
2023/06/02 02:07:00;;;;;;;18.60;7.80;;;;;;;15.85;58.19;100167.09;123202;1099;104283;-74
2023/06/02 02:09:32;;;;;;;17.90;7.40;;;;;;;15.75;58.39;100160.80;123175;1099;104325;-73
2023/06/02 02:12:03;;;;;;;20.77;7.80;;;;;;;15.74;58.77;100165.22;123281;1102;104318;-74
2023/06/02 02:14:34;;;;;;;21.67;7.40;;;;;;;15.73;59.58;100159.91;123208;1102;104313;-74
2023/06/02 02:17:06;;;;;;;19.90;8.00;;;;;;;15.77;59.13;100165.28;123167;1099;104338;-73
2023/06/02 02:19:37;;;;;;;21.30;7.43;;;;;;;15.85;59.79;100162.70;123200;1099;104277;-73
2023/06/02 02:22:08;;;;;;;17.93;7.90;;;;;;;15.91;59.10;100160.12;123098;1099;104280;-72
2023/06/02 02:24:40;;;;;;;18.70;7.37;;;;;;;15.93;58.91;100160.13;123214;1099;104239;-74
2023/06/02 02:27:12;;;;;;;16.93;7.37;;;;;;;15.96;59.52;100165.45;123236;1099;104327;-74
2023/06/02 02:29:44;;;;;;;17.40;7.40;;;;;;;15.99;59.95;100162.83;123147;1099;104344;-73
2023/06/02 02:32:16;;;;;;;17.67;7.47;;;;;;;15.99;59.24;100160.18;123176;1099;104268;-73
2023/06/02 02:34:48;;;;;;;17.03;7.20;;;;;;;16.03;60.18;100159.31;123135;1099;104319;-73
2023/06/02 02:37:21;;;;;;;17.57;7.57;;;;;;;16.06;59.86;100161.98;123138;1102;104767;-73
2023/06/02 02:39:52;;;;;;;18.73;7.40;;;;;;;16.07;60.34;100161.12;123161;1099;104341;-74
2023/06/02 02:42:23;;;;;;;20.00;8.03;;;;;;;16.06;59.80;100161.11;123151;1099;105674;-74
2023/06/02 02:44:54;;;;;;;19.63;8.13;;;;;;;16.06;59.52;100167.28;123218;1099;104268;-74
2023/06/02 02:47:26;;;;;;;21.07;8.17;;;;;;;16.10;59.65;100165.56;123186;1099;104271;-74
2023/06/02 02:49:57;;;;;;;21.37;9.17;;;;;;;16.12;59.99;100164.67;123175;1100;104319;-73
2023/06/02 02:52:28;;;;;;;17.50;7.35;;;;;;;16.10;60.37;100163.79;123147;1099;104232;-74
2023/06/02 02:55:00;;;;;;;24.20;8.33;;;;;;;16.04;60.16;100157.58;123117;1099;104540;-73
2023/06/02 02:57:32;;;;;;;19.35;7.75;;;;;;;15.99;59.92;100160.18;123359;1099;104241;-73
2023/06/02 03:00:05;;;;;;;15.77;7.53;;;;;;;15.98;60.59;100158.40;123198;1102;104460;-73
2023/06/02 03:02:38;;;;;;;17.40;7.73;;;;;;;15.91;59.85;100170.70;123149;1099;104242;-73
2023/06/02 03:05:13;;;;;;;22.40;7.93;;;;;;;15.85;60.82;100165.35;123133;1102;104366;-73
2023/06/02 03:07:46;;;;;;;20.33;7.90;;;;;;;15.81;60.78;100167.06;123145;1099;104390;-73
2023/06/02 03:10:18;;;;;;;22.48;8.08;;;;;;;15.80;61.14;100165.31;123190;1102;104373;-72
2023/06/02 03:12:50;;;;;;;20.90;7.20;;;;;;;15.81;60.51;100172.35;123260;1099;104213;-73
2023/06/02 03:15:22;;;;;;;20.70;7.87;;;;;;;15.85;61.10;100167.09;123230;1102;104291;-73
2023/06/02 03:17:55;;;;;;;22.35;7.95;;;;;;;15.85;61.13;100170.65;123134;1102;104342;-73
2023/06/02 03:20:26;;;;;;;23.02;7.75;;;;;;;15.92;61.16;100167.16;123088;1100;104370;-72
2023/06/02 03:22:58;;;;;;;20.83;8.03;;;;;;;15.95;61.63;100167.19;123148;1099;104252;-74
2023/06/02 03:25:30;;;;;;;20.10;7.43;;;;;;;16.00;60.95;100169.88;123153;1102;104354;-74
2023/06/02 03:28:02;;;;;;;21.70;7.60;;;;;;;16.03;61.26;100164.60;123146;1099;104328;-73
2023/06/02 03:30:34;;;;;;;20.00;7.80;;;;;;;16.02;61.50;100165.50;123156;1099;104267;-72
2023/06/02 03:33:06;;;;;;;19.90;7.40;;;;;;;16.00;61.01;100164.58;123134;1102;104698;-72
2023/06/02 03:35:37;;;;;;;19.40;8.20;;;;;;;15.97;61.41;100159.27;123184;1102;104277;-72
2023/06/02 03:38:09;;;;;;;19.83;7.50;;;;;;;15.96;62.07;100160.16;123018;1102;104278;-73
2023/06/02 03:40:41;;;;;;;18.70;7.53;;;;;;;15.98;62.09;100158.40;123070;1099;104220;-72
2023/06/02 03:43:12;;;;;;;17.67;7.63;;;;;;;16.01;62.39;100155.78;123016;1099;104319;-73
2023/06/02 03:45:45;;;;;;;17.40;7.47;;;;;;;16.02;61.59;100154.91;123174;1102;104616;-73
2023/06/02 03:48:17;;;;;;;17.43;7.90;;;;;;;16.07;62.51;100163.77;123176;1099;104179;-74
2023/06/02 03:50:49;;;;;;;21.10;7.80;;;;;;;16.14;61.91;100162.05;123318;1099;104335;-74
2023/06/02 03:53:21;;;;;;;22.17;8.63;;;;;;;16.17;61.93;100155.03;123082;1102;104431;-74
2023/06/02 03:55:52;;;;;;;20.17;7.77;;;;;;;16.21;62.42;100155.05;123134;1102;104332;-74
2023/06/02 03:58:23;;;;;;;17.27;7.27;;;;;;;16.23;62.49;100161.23;123113;1101;104402;-74
2023/06/02 04:00:56;;;;;;;16.70;7.47;;;;;;;16.26;62.13;100151.55;123130;1102;104374;-73
2023/06/02 04:03:28;;;;;;;22.37;8.27;;;;;;;16.31;61.94;100157.78;123142;1102;105444;-75
2023/06/02 04:06:01;;;;;;;19.03;7.87;;;;;;;16.34;62.48;100152.47;123309;1100;104210;-74
2023/06/02 04:08:34;;;;;;;17.23;7.70;;;;;;;16.38;62.65;100157.79;123190;1102;104364;-74
2023/06/02 04:11:06;;;;;;;19.17;8.47;;;;;;;16.38;62.56;100155.14;123122;1102;104287;-73
2023/06/02 04:13:37;;;;;;;18.03;8.50;;;;;;;16.38;62.37;100158.70;123130;1102;104281;-73
2023/06/02 04:16:09;;;;;;;20.57;8.20;;;;;;;16.39;62.48;100152.50;123203;1099;104217;-74
2023/06/02 04:18:41;;;;;;;22.37;8.43;;;;;;;16.42;63.19;100157.81;123282;1099;104328;-74
2023/06/02 04:21:14;;;;;;;18.10;8.13;;;;;;;16.48;63.19;100159.63;123175;1102;104323;-74
2023/06/02 04:23:46;;;;;;;18.70;8.77;;;;;;;16.51;63.01;100159.66;123199;1102;104482;-74
2023/06/02 04:26:18;;;;;;;22.07;7.87;;;;;;;16.57;62.90;100150.87;123107;1100;104348;-75
2023/06/02 04:28:50;;;;;;;21.60;8.77;;;;;;;16.61;62.81;100144.69;123102;1102;104329;-75
2023/06/02 04:31:28;;;;;;;19.27;8.60;;;;;;;16.65;63.24;100150.02;123203;1099;104239;-75
2023/06/02 04:34:01;;;;;;;18.97;8.00;;;;;;;16.70;63.23;100150.95;123147;1102;104319;-74
2023/06/02 04:36:33;;;;;;;21.40;8.73;;;;;;;16.78;63.17;100153.63;123124;1102;107957;-75
2023/06/02 04:39:06;;;;;;;21.83;8.43;;;;;;;16.87;62.94;100144.85;123316;1102;104297;-76
2023/06/02 04:41:37;;;;;;;19.13;8.57;;;;;;;17.00;62.92;100148.43;123302;1099;104265;-75
2023/06/02 04:44:09;;;;;;;23.80;8.80;;;;;;;17.15;63.07;100150.27;123304;1099;104265;-75
2023/06/02 04:46:41;;;;;;;21.83;8.90;;;;;;;17.26;62.86;100143.22;123365;1102;104297;-76
2023/06/02 04:49:13;;;;;;;21.70;8.87;;;;;;;17.35;63.10;100137.94;123445;1102;104488;-76
2023/06/02 04:51:44;;;;;;;22.20;9.17;;;;;;;17.44;62.79;100145.05;123500;1102;104277;-75
2023/06/02 04:54:16;;;;;;;18.77;8.53;;;;;;;17.53;63.11;100139.75;123185;1102;104693;-75
2023/06/02 04:56:48;;;;;;;22.63;8.93;;;;;;;17.61;63.03;100145.07;123393;1102;104249;-74
2023/06/02 04:59:22;;;;;;;23.40;8.83;;;;;;;17.70;62.75;100141.52;123510;1099;104345;-74
2023/06/02 05:01:53;;;;;;;22.30;8.90;;;;;;;17.81;62.74;100145.09;123214;1102;104332;-76
2023/06/02 05:04:24;;;;;;;22.03;9.23;;;;;;;17.92;62.74;100143.34;123234;1099;104345;-75
2023/06/02 05:06:56;;;;;;;25.40;8.60;;;;;;;18.05;62.73;100141.56;123275;1098;104245;-80
2023/06/02 05:09:28;;;;;;;25.40;8.87;;;;;;;18.12;62.73;100146.00;123272;1099;104194;-74
2023/06/02 05:12:00;;;;;;;24.57;8.67;;;;;;;18.24;62.58;100147.73;123327;1099;104265;-75
2023/06/02 05:14:34;;;;;;;23.20;9.33;;;;;;;18.37;62.58;100140.66;123193;1099;104406;-77
2023/06/02 05:17:07;;;;;;;21.20;8.83;;;;;;;18.49;62.72;100140.59;123210;1102;104309;-76
2023/06/02 05:19:40;;;;;;;23.27;9.00;;;;;;;18.61;62.46;100138.82;123300;1100;104334;-76
2023/06/02 05:22:12;;;;;;;20.05;8.85;;;;;;;18.70;62.38;100144.11;123440;1099;104252;-76
2023/06/02 05:24:43;;;;;;;20.10;8.47;;;;;;;18.81;62.42;100136.97;123210;1099;104328;-75
2023/06/02 05:27:14;;;;;;;21.53;9.27;;;;;;;18.96;61.92;100145.80;123275;1102;104382;-76
2023/06/02 05:29:45;;;;;;;24.57;9.10;;;;;;;19.07;61.98;100143.97;123367;1099;104249;-76
2023/06/02 05:32:20;;;;;;;23.20;9.17;;;;;;;19.20;61.72;100150.13;123263;1099;104354;-75
2023/06/02 05:34:51;;;;;;;23.77;9.30;;;;;;;19.31;62.09;100142.09;123568;1099;104245;-74
2023/06/02 05:37:23;;;;;;;18.50;9.30;;;;;;;19.40;61.91;100142.91;123266;1102;104344;-76
2023/06/02 05:39:54;;;;;;;23.80;9.75;;;;;;;19.53;61.85;100140.17;123221;1099;104239;-75
2023/06/02 05:42:28;;;;;;;17.62;8.53;;;;;;;19.65;61.34;100140.09;123819;1102;104262;-74
2023/06/02 05:45:02;;;;;;;22.97;8.33;;;;;;;19.77;61.46;100136.47;123220;1099;104300;-74
2023/06/02 05:47:32;;;;;;;;;;;;;;;19.89;60.53;100135.50;123229;1099;104270;-73
2023/06/02 05:50:04;;;;;;;20.60;8.50;;;;;;;20.01;61.25;100145.17;123288;1102;104249;-74
2023/06/02 05:52:36;;;;;;;20.57;8.43;;;;;;;20.13;60.56;100145.03;123305;1102;104373;-74
2023/06/02 05:55:08;;;;;;;20.15;8.80;;;;;;;20.24;60.60;100142.27;123176;1099;104399;-76
2023/06/02 05:57:40;;;;;;;18.15;8.45;;;;;;;20.36;60.06;100143.95;123229;1102;104374;-75
2023/06/02 06:00:15;;;;;;;19.80;8.60;;;;;;;20.48;60.32;100142.03;123395;1100;104277;-75
2023/06/02 06:02:47;;;;;;;23.10;8.68;;;;;;;20.61;59.59;100149.89;123444;1099;104658;-75
2023/06/02 06:05:22;;;;;;;23.40;8.70;;;;;;;20.71;60.41;100145.36;123731;1099;104278;-75
2023/06/02 06:07:53;;;;;;;23.17;8.43;;;;;;;20.79;59.36;100140.84;123261;1099;104853;-75
2023/06/02 06:10:25;;;;;;;25.77;9.07;;;;;;;20.85;60.09;100135.44;123225;1099;104370;-75
2023/06/02 06:12:57;;;;;;;21.35;8.75;;;;;;;20.94;59.67;100142.42;123434;1099;104392;-74
2023/06/02 06:15:28;;;;;;;18.93;7.80;;;;;;;21.03;59.50;100144.97;123497;1102;104223;-74
2023/06/02 06:18:00;;;;;;;25.73;8.80;;;;;;;21.13;59.25;100143.96;123367;1102;104440;-76
2023/06/02 06:20:31;;;;;;;18.00;7.70;;;;;;;21.24;58.84;100132.23;123670;1099;104229;-76
2023/06/02 06:23:03;;;;;;;22.60;8.27;;;;;;;21.34;58.40;100137.42;123476;1102;104345;-74
2023/06/02 06:25:35;;;;;;;20.80;7.97;;;;;;;21.41;58.93;100134.67;123315;1099;104213;-72
2023/06/02 06:28:06;;;;;;;24.17;7.60;;;;;;;21.49;58.86;100133.70;123253;1099;104315;-73
2023/06/02 06:30:39;;;;;;;23.80;7.93;;;;;;;21.62;57.97;100139.72;123356;1099;104278;-76
2023/06/02 06:33:11;;;;;;;19.40;7.10;;;;;;;21.78;58.83;100131.47;123444;1099;104267;-74
2023/06/02 06:35:43;;;;;;;16.43;7.07;;;;;;;21.90;58.28;100136.61;123359;1099;104255;-73
2023/06/02 06:38:15;;;;;;;15.67;7.10;;;;;;;22.02;57.53;100130.20;123329;1099;104318;-74
2023/06/02 06:40:47;;;;;;;16.83;7.23;;;;;;;22.13;58.02;100130.88;123217;1102;104351;-74
2023/06/02 06:43:19;;;;;;;17.33;6.60;;;;;;;22.26;57.47;100126.19;123262;1102;104482;-74
2023/06/02 06:45:56;;;;;;;17.90;6.97;;;;;;;22.38;57.71;100125.13;123332;1099;104229;-74
2023/06/02 06:48:28;;;;;;;16.40;6.77;;;;;;;22.50;57.70;100124.89;123481;1099;104387;-74
2023/06/02 06:51:02;;;;;;;19.03;6.53;;;;;;;22.61;57.73;100122.88;123427;1099;104319;-73
2023/06/02 06:53:33;;;;;;;15.27;6.23;;;;;;;22.78;57.43;100119.86;123339;1099;104332;-73
2023/06/02 06:56:05;;;;;;;15.17;6.60;;;;;;;22.93;56.85;100121.31;123302;1102;104864;-75
2023/06/02 06:58:37;;;;;;;16.90;6.87;;;;;;;23.08;56.73;100119.25;123272;1098;104354;-73
2023/06/02 07:01:08;;;;;;;19.93;7.10;;;;;;;23.24;56.39;100117.14;123330;1099;104277;-75
2023/06/02 07:03:39;;;;;;;18.13;6.83;;;;;;;23.45;56.67;100122.00;123239;1102;104294;-74
2023/06/02 07:06:11;;;;;;;18.70;6.83;;;;;;;23.69;56.02;100112.48;123411;1099;104223;-73
2023/06/02 07:08:42;;;;;;;14.03;5.93;;;;;;;23.89;55.73;100111.15;123340;1099;104301;-75
2023/06/02 07:11:14;;;;;;;15.23;6.03;;;;;;;24.10;55.05;100114.19;123392;1099;104303;-74
2023/06/02 07:13:45;;;;;;;17.30;6.03;;;;;;;24.30;54.28;100114.53;123419;1101;104297;-76
2023/06/02 07:16:16;;;;;;;17.17;6.10;;;;;;;24.49;53.68;100114.89;123320;1099;104300;-74
2023/06/02 07:18:48;;;;;;;14.43;5.60;;;;;;;24.73;53.65;100115.17;123451;1099;104409;-75
2023/06/02 07:21:20;;;;;;;12.17;5.87;;;;;;;24.93;52.64;100110.09;123261;1099;104530;-75
2023/06/02 07:23:52;;;;;;;13.33;5.67;;;;;;;25.16;52.26;100111.19;123365;1102;104309;-76
2023/06/02 07:26:23;;;;;;;11.37;6.03;;;;;;;25.41;51.94;100111.33;123323;1102;104255;-75
2023/06/02 07:28:56;;;;;;;11.63;5.80;;;;;;;25.64;51.49;100109.72;123318;1099;104242;-77
2023/06/02 07:31:27;;;;;;;14.00;5.42;;;;;;;25.84;50.93;100104.55;123336;1102;104294;-75
2023/06/02 07:33:58;;;;;;;15.17;5.53;;;;;;;26.01;50.31;100112.08;123476;1102;104408;-74
2023/06/02 07:36:30;;;;;;;11.33;5.63;;;;;;;26.15;49.89;100108.91;123359;1099;104344;-73
2023/06/02 07:39:01;;;;;;;12.83;5.37;;;;;;;26.33;49.50;100106.49;123542;1099;104281;-76
2023/06/02 07:41:33;;;;;;;11.30;5.00;;;;;;;26.52;47.71;100110.29;123804;1100;104229;-78
2023/06/02 07:44:04;;;;;;;12.13;5.07;;;;;;;26.72;47.61;100111.37;123422;1102;104326;-76
2023/06/02 07:46:35;;;;;;;14.80;5.73;;;;;;;26.96;46.82;100108.69;123354;1102;104466;-76
2023/06/02 07:49:07;;;;;;;12.07;5.47;;;;;;;27.17;46.24;100106.98;123477;1099;104316;-76
2023/06/02 07:51:39;;;;;;;12.57;5.50;;;;;;;27.33;45.59;100104.59;123304;1100;104280;-76
2023/06/02 07:54:10;;;;;;;13.73;5.47;;;;;;;27.46;44.82;100110.35;123492;1099;104326;-75
2023/06/02 07:56:41;;;;;;;13.83;5.47;;;;;;;27.60;44.92;100097.22;123407;1102;104396;-75
2023/06/02 07:59:12;;;;;;;12.95;5.55;;;;;;;27.70;43.39;100098.56;123330;1102;105662;-76
2023/06/02 08:01:44;;;;;;;15.57;5.57;;;;;;;27.86;43.78;100098.83;123388;1102;104648;-77
2023/06/02 08:04:16;;;;;;;15.33;5.83;;;;;;;28.02;43.80;100108.95;123435;1102;104285;-76
2023/06/02 08:06:47;;;;;;;10.17;5.50;;;;;;;28.17;43.70;100105.60;123236;1101;104657;-75
2023/06/02 08:09:19;;;;;;;15.27;5.70;;;;;;;28.32;43.06;100104.06;123198;1099;104689;-75
2023/06/02 08:11:50;;;;;;;10.43;5.37;;;;;;;28.42;43.23;100104.52;123209;1099;104399;-75
2023/06/02 08:14:22;;;;;;;10.30;5.20;;;;;;;28.56;42.23;100106.60;123228;1099;104290;-74
2023/06/02 08:16:55;;;;;;;12.77;4.80;;;;;;;28.70;41.54;100098.78;123248;1099;104807;-74
2023/06/02 08:19:27;;;;;;;9.70;5.20;;;;;;;28.91;41.38;100101.45;123539;1099;104265;-74
2023/06/02 08:21:58;;;;;;;11.93;5.67;;;;;;;29.03;41.14;100090.04;123312;1101;104249;-75
2023/06/02 08:24:29;;;;;;;12.70;5.47;;;;;;;28.96;40.51;100094.00;123184;1100;104418;-74
2023/06/02 08:27:03;;;;;;;12.00;4.80;;;;;;;29.00;39.92;100088.38;123199;1102;104420;-76
2023/06/02 08:29:34;;;;;;;9.33;5.03;;;;;;;29.13;39.89;100093.20;123133;1102;104498;-74
2023/06/02 08:32:06;;;;;;;10.15;4.90;;;;;;;29.36;38.23;100082.19;123185;1102;104208;-75
2023/06/02 08:34:41;;;;;;;8.50;4.80;;;;;;;29.50;37.81;100076.09;123213;1102;104265;-76
2023/06/02 08:37:16;;;;;;;10.90;5.20;;;;;;;29.73;37.56;100071.34;123176;1102;104431;-76
2023/06/02 08:39:48;;;;;;;11.67;5.00;;;;;;;29.95;36.90;100079.29;123252;1102;104357;-76
2023/06/02 08:42:22;;;;;;;10.50;5.13;;;;;;;29.89;37.11;100079.60;123355;1102;104705;-78
2023/06/02 08:44:54;;;;;;;10.90;5.45;;;;;;;30.01;37.07;100076.27;123294;1102;104321;-76
2023/06/02 08:47:29;;;;;;;13.23;5.00;;;;;;;30.05;36.08;100075.13;123427;1099;104321;-78
2023/06/02 08:50:03;;;;;;;13.87;5.40;;;;;;;30.20;35.45;100069.86;123460;1099;104325;-77
2023/06/02 08:52:38;;;;;;;10.93;5.03;;;;;;;30.25;35.23;100067.81;123341;1102;104753;-76
2023/06/02 08:55:11;;;;;;;11.03;5.10;;;;;;;30.27;35.04;100069.45;123325;1099;104332;-76
2023/06/02 08:57:42;;;;;;;8.53;4.87;;;;;;;30.29;34.85;100066.67;123320;1102;104290;-75
2023/06/02 09:00:16;;;;;;;11.95;4.70;;;;;;;30.32;34.90;100068.35;123202;1099;104249;-76
2023/06/02 09:02:48;;;;;;;12.00;5.10;;;;;;;30.37;34.27;100071.67;123233;1099;104416;-74
2023/06/02 09:05:20;;;;;;;7.72;4.97;;;;;;;30.45;34.15;100070.35;123600;1099;104296;-76
2023/06/02 09:08:09;;;;;;;10.60;4.90;;;;;;;30.45;33.81;100073.06;123242;1100;104242;-75
2023/06/02 09:10:41;;;;;;;12.17;5.13;;;;;;;30.43;33.36;100065.97;123488;1099;104248;-78
2023/06/02 09:13:28;;;;;;;9.87;4.77;;;;;;;30.46;32.50;100063.99;123639;1102;104299;-76
2023/06/02 09:16:01;;;;;;;7.53;4.60;;;;;;;30.49;32.32;100070.19;123356;1099;104412;-76
2023/06/02 09:18:31;;;;;;;;;;;;;;;30.37;32.92;100061.75;123640;1098;104255;-76
2023/06/02 09:21:03;;;;;;;9.70;4.67;;;;;;;30.37;32.17;100059.04;123552;1099;104245;-74
2023/06/02 09:23:45;;;;;;;13.37;5.00;;;;;;;30.56;31.52;100060.75;123325;1102;104271;-75
2023/06/02 09:26:23;;;;;;;10.63;4.67;;;;;;;30.53;31.59;100050.13;123299;1102;104317;-75
2023/06/02 09:29:06;;;;;;;10.67;5.30;;;;;;;30.68;31.14;100041.13;123265;1099;104448;-76
2023/06/02 09:31:50;;;;;;;8.50;4.97;;;;;;;30.89;30.93;100043.63;123482;1099;104408;-75
2023/06/02 09:34:22;;;;;;;10.57;4.70;;;;;;;31.06;30.96;100038.15;123268;1102;104232;-75
2023/06/02 09:36:54;;;;;;;8.15;4.90;;;;;;;31.10;30.64;100034.28;123250;1100;104252;-74
2023/06/02 09:39:38;;;;;;;13.70;5.10;;;;;;;31.19;29.55;100036.47;123307;1102;104274;-75
2023/06/02 09:42:08;;;;;;;;;;;;;;;31.22;29.60;100030.01;123370;1102;104367;-76
2023/06/02 09:44:40;;;;;;;8.13;4.60;;;;;;;31.09;30.06;100028.95;123204;1099;104277;-76
2023/06/02 09:47:25;;;;;;;11.07;4.70;;;;;;;30.88;30.07;100037.31;123243;1099;104249;-76
2023/06/02 09:49:56;;;;;;;7.47;4.57;;;;;;;30.87;29.75;100030.17;123231;1102;104357;-76
2023/06/02 09:52:28;;;;;;;9.83;4.70;;;;;;;30.84;28.76;100024.92;123282;1102;104310;-76
2023/06/02 09:55:00;;;;;;;11.73;4.77;;;;;;;30.78;29.32;100023.42;123293;1099;104246;-77
2023/06/02 09:57:33;;;;;;;9.67;4.70;;;;;;;30.80;29.43;100021.49;123329;1099;104268;-76
2023/06/02 10:00:11;;;;;;;8.23;4.50;;;;;;;30.89;28.41;100022.81;123674;1099;104352;-76
2023/06/02 10:02:46;;;;;;;8.13;4.90;;;;;;;31.03;28.87;100013.94;123762;1099;104229;-78
2023/06/02 10:05:22;;;;;;;10.00;4.57;;;;;;;31.07;28.69;100026.36;123538;1099;104194;-76
2023/06/02 10:08:04;;;;;;;12.70;4.77;;;;;;;31.07;28.67;100015.52;123521;1100;104518;-77
2023/06/02 10:11:00;;;;;;;9.53;4.77;;;;;;;31.13;28.22;100012.43;123427;1099;104264;-76
2023/06/02 10:13:55;;;;;;;11.40;4.80;;;;;;;31.16;27.95;100008.68;123283;1099;111805;-76
2023/06/02 10:16:39;;;;;;;9.20;4.87;;;;;;;30.98;28.15;100006.08;123554;1099;104290;-77
2023/06/02 10:19:42;;;;;;;8.57;4.47;;;;;;;31.03;27.78;99994.98;123490;1101;104293;-76
2023/06/02 10:22:30;;;;;;;9.53;4.92;;;;;;;30.96;27.90;99998.95;123445;1099;104274;-76
2023/06/02 10:25:13;;;;;;;9.50;4.53;;;;;;;30.93;27.04;99997.31;123374;1099;104340;-75
2023/06/02 10:27:47;;;;;;;12.40;5.10;;;;;;;30.96;27.50;99989.02;123294;1099;104370;-78
2023/06/02 10:30:23;;;;;;;13.05;6.00;;;;;;;30.88;27.56;99991.27;123281;1099;104232;-76
2023/06/02 10:32:55;;;;;;;11.73;5.60;;;;;;;30.67;27.92;99985.25;123326;1099;104297;-76
2023/06/02 10:35:59;;;;;;;12.80;5.20;;;;;;;30.53;27.85;99990.57;123409;1102;104341;-78
2023/06/02 10:38:33;;;;;;;9.00;4.80;;;;;;;30.54;27.81;99986.88;123574;1099;104246;-79
2023/06/02 10:41:02;;;;;;;;;;;;;;;30.54;27.80;99990.48;123569;1099;104300;-78
2023/06/02 10:43:35;;;;;;;10.90;4.67;;;;;;;30.51;27.77;99987.95;123544;1099;104248;-77
2023/06/02 10:46:22;;;;;;;10.10;4.70;;;;;;;30.57;27.67;99984.00;123622;1099;104355;-77
2023/06/02 10:48:53;;;;;;;10.10;4.80;;;;;;;30.68;27.77;99991.53;123560;1099;104350;-76
2023/06/02 10:51:25;;;;;;;8.77;4.50;;;;;;;30.73;27.12;99984.91;123567;1099;104302;-77
2023/06/02 10:54:17;;;;;;;8.90;4.53;;;;;;;30.80;26.70;99985.42;123548;1099;104297;-78
2023/06/02 10:56:49;;;;;;;8.60;4.70;;;;;;;30.77;26.92;99975.63;123326;1099;104377;-77
2023/06/02 10:59:37;;;;;;;9.30;4.63;;;;;;;30.75;26.73;99982.97;123412;1099;104254;-78
2023/06/02 11:02:09;;;;;;;10.07;4.47;;;;;;;30.80;26.98;99971.88;123620;1099;104533;-76
2023/06/02 11:04:43;;;;;;;10.85;4.65;;;;;;;30.90;26.97;99967.70;123685;1099;104274;-79
2023/06/02 11:07:21;;;;;;;9.90;4.70;;;;;;;30.92;26.50;99973.89;123182;1099;104248;-79
2023/06/02 11:09:54;;;;;;;12.13;4.97;;;;;;;30.95;26.89;99965.59;123744;1102;104255;-78
2023/06/02 11:13:02;;;;;;;9.68;4.72;;;;;;;30.99;27.07;99974.43;123612;1099;104328;-79
2023/06/02 11:15:33;;;;;;;9.70;5.07;;;;;;;31.06;27.23;99967.71;123410;1102;107043;-78
2023/06/02 11:18:43;;;;;;;12.43;5.00;;;;;;;31.06;27.14;99959.58;123573;1102;104268;-79
2023/06/02 11:21:22;;;;;;;8.70;4.60;;;;;;;31.09;27.03;99961.22;123470;1102;104198;-78
2023/06/02 11:23:53;;;;;;;9.03;4.50;;;;;;;31.16;27.05;99951.78;123442;1102;104178;-77
2023/06/02 11:26:25;;;;;;;11.23;5.20;;;;;;;31.05;27.13;99951.55;123600;1102;104259;-76
2023/06/02 11:28:56;;;;;;;9.05;4.50;;;;;;;31.12;26.83;99947.49;123642;1102;104341;-77
2023/06/02 11:31:27;;;;;;;11.13;4.77;;;;;;;31.18;26.60;99955.27;123599;1100;104188;-76
2023/06/02 11:33:59;;;;;;;9.07;4.70;;;;;;;31.23;26.46;99944.15;123528;1099;104242;-76